sensor_id;sensor_type;location;lat;lon;timestamp;pressure;altitude;pressure_sealevel;temperature;humidity
41632;BME280;37452;51.938;4.624;2022-09-09T00:00:23;76251.41;;;-142.75;100.00
41632;BME280;37452;51.938;4.624;2022-09-09T00:05:23;76251.41;;;-142.75;100.00
41632;BME280;37452;51.938;4.624;2022-09-09T00:07:52;76261.25;;;-142.75;100.00
41632;BME280;37452;51.938;4.624;2022-09-09T00:18:15;76251.41;;;-142.75;100.00
41632;BME280;37452;51.938;4.624;2022-09-09T00:20:56;76263.22;;;-142.75;100.00
41632;BME280;37452;51.938;4.624;2022-09-09T00:25:51;76259.28;;;-142.75;100.00
41632;BME280;37452;51.938;4.624;2022-09-09T00:28:20;76251.41;;;-142.75;100.00
41632;BME280;37452;51.938;4.624;2022-09-09T00:30:46;76271.09;;;-142.75;100.00
41632;BME280;37452;51.938;4.624;2022-09-09T00:33:13;76251.41;;;-142.75;100.00
41632;BME280;37452;51.938;4.624;2022-09-09T00:35:50;76259.28;;;-142.75;100.00
41632;BME280;37452;51.938;4.624;2022-09-09T00:38:18;76255.34;;;-142.75;100.00
41632;BME280;37452;51.938;4.624;2022-09-09T00:40:56;76259.28;;;-142.75;100.00
41632;BME280;37452;51.938;4.624;2022-09-09T00:48:22;76253.38;;;-142.75;100.00
41632;BME280;37452;51.938;4.624;2022-09-09T00:50:53;76259.28;;;-142.75;100.00
41632;BME280;37452;51.938;4.624;2022-09-09T00:56:14;76257.31;;;-142.75;100.00
41632;BME280;37452;51.938;4.624;2022-09-09T00:58:54;76259.28;;;-142.75;100.00
41632;BME280;37452;51.938;4.624;2022-09-09T01:01:23;76267.16;;;-142.75;100.00
41632;BME280;37452;51.938;4.624;2022-09-09T01:06:29;76255.34;;;-142.75;100.00
41632;BME280;37452;51.938;4.624;2022-09-09T01:11:47;76259.28;;;-142.75;100.00
41632;BME280;37452;51.938;4.624;2022-09-09T01:17:02;76249.44;;;-142.75;100.00
41632;BME280;37452;51.938;4.624;2022-09-09T01:19:40;76237.63;;;-142.75;100.00
41632;BME280;37452;51.938;4.624;2022-09-09T01:25:26;76239.59;;;-142.75;100.00
41632;BME280;37452;51.938;4.624;2022-09-09T01:27:30;76243.53;;;-142.75;100.00
41632;BME280;37452;51.938;4.624;2022-09-09T01:29:56;76233.69;;;-142.75;100.00
41632;BME280;37452;51.938;4.624;2022-09-09T01:35:02;76223.84;;;-142.75;100.00
41632;BME280;37452;51.938;4.624;2022-09-09T01:37:28;76219.91;;;-142.75;100.00
41632;BME280;37452;51.938;4.624;2022-09-09T01:39:53;76221.88;;;-142.75;100.00
41632;BME280;37452;51.938;4.624;2022-09-09T01:42:18;76225.81;;;-142.75;100.00
41632;BME280;37452;51.938;4.624;2022-09-09T01:44:44;76215.97;;;-142.75;100.00
41632;BME280;37452;51.938;4.624;2022-09-09T01:47:09;76215.97;;;-142.75;100.00
41632;BME280;37452;51.938;4.624;2022-09-09T01:49:34;76219.91;;;-142.75;100.00
41632;BME280;37452;51.938;4.624;2022-09-09T01:51:59;76215.97;;;-142.75;100.00
41632;BME280;37452;51.938;4.624;2022-09-09T01:54:27;76212.03;;;-142.75;100.00
41632;BME280;37452;51.938;4.624;2022-09-09T01:57:08;76212.03;;;-142.75;100.00
41632;BME280;37452;51.938;4.624;2022-09-09T01:59:54;76208.09;;;-142.75;100.00
41632;BME280;37452;51.938;4.624;2022-09-09T02:02:26;76204.16;;;-142.75;100.00
41632;BME280;37452;51.938;4.624;2022-09-09T02:05:05;76208.09;;;-142.75;100.00
41632;BME280;37452;51.938;4.624;2022-09-09T02:07:39;76204.16;;;-142.75;100.00
41632;BME280;37452;51.938;4.624;2022-09-09T02:10:15;76198.28;;;-142.75;100.00
41632;BME280;37452;51.938;4.624;2022-09-09T02:12:42;76192.38;;;-142.75;100.00
41632;BME280;37452;51.938;4.624;2022-09-09T02:17:47;76188.44;;;-142.75;100.00
41632;BME280;37452;51.938;4.624;2022-09-09T02:20:15;76192.38;;;-142.75;100.00
41632;BME280;37452;51.938;4.624;2022-09-09T02:22:41;76198.28;;;-142.75;100.00
41632;BME280;37452;51.938;4.624;2022-09-09T02:25:09;76190.41;;;-142.75;100.00
41632;BME280;37452;51.938;4.624;2022-09-09T02:27:35;76192.38;;;-142.75;100.00
41632;BME280;37452;51.938;4.624;2022-09-09T02:30:01;76188.44;;;-142.75;100.00
41632;BME280;37452;51.938;4.624;2022-09-09T02:32:27;76180.56;;;-142.75;100.00
41632;BME280;37452;51.938;4.624;2022-09-09T02:34:57;76174.66;;;-142.75;100.00
41632;BME280;37452;51.938;4.624;2022-09-09T02:37:24;76176.63;;;-142.75;100.00
41632;BME280;37452;51.938;4.624;2022-09-09T02:39:50;76164.81;;;-142.75;100.00
41632;BME280;37452;51.938;4.624;2022-09-09T02:42:15;76174.66;;;-142.75;100.00
41632;BME280;37452;51.938;4.624;2022-09-09T02:44:40;76186.47;;;-142.75;100.00
41632;BME280;37452;51.938;4.624;2022-09-09T02:52:14;76194.34;;;-142.75;100.00
41632;BME280;37452;51.938;4.624;2022-09-09T02:54:41;76194.34;;;-142.75;100.00
41632;BME280;37452;51.938;4.624;2022-09-09T02:57:11;76188.44;;;-142.75;100.00
41632;BME280;37452;51.938;4.624;2022-09-09T02:59:37;76188.44;;;-142.75;100.00
41632;BME280;37452;51.938;4.624;2022-09-09T03:02:03;76184.50;;;-142.75;100.00
41632;BME280;37452;51.938;4.624;2022-09-09T03:04:28;76190.41;;;-142.75;100.00
41632;BME280;37452;51.938;4.624;2022-09-09T03:06:54;76170.72;;;-142.75;100.00
41632;BME280;37452;51.938;4.624;2022-09-09T03:09:20;76180.56;;;-142.75;100.00
41632;BME280;37452;51.938;4.624;2022-09-09T03:11:45;76162.84;;;-142.75;100.00
41632;BME280;37452;51.938;4.624;2022-09-09T03:14:10;76172.69;;;-142.75;100.00
41632;BME280;37452;51.938;4.624;2022-09-09T03:16:36;76170.72;;;-142.75;100.00
41632;BME280;37452;51.938;4.624;2022-09-09T03:19:01;76168.75;;;-142.75;100.00
41632;BME280;37452;51.938;4.624;2022-09-09T03:21:27;76168.75;;;-142.75;100.00
41632;BME280;37452;51.938;4.624;2022-09-09T03:23:52;76160.88;;;-142.75;100.00
41632;BME280;37452;51.938;4.624;2022-09-09T03:26:17;76168.75;;;-142.75;100.00
41632;BME280;37452;51.938;4.624;2022-09-09T03:28:42;76170.72;;;-142.75;100.00
41632;BME280;37452;51.938;4.624;2022-09-09T03:31:08;76168.75;;;-142.75;100.00
41632;BME280;37452;51.938;4.624;2022-09-09T03:33:35;76168.75;;;-142.75;100.00
41632;BME280;37452;51.938;4.624;2022-09-09T03:36:02;76162.84;;;-142.75;100.00
41632;BME280;37452;51.938;4.624;2022-09-09T03:38:27;76164.81;;;-142.75;100.00
41632;BME280;37452;51.938;4.624;2022-09-09T03:40:53;76168.75;;;-142.75;100.00
41632;BME280;37452;51.938;4.624;2022-09-09T03:43:27;76164.81;;;-142.75;100.00
41632;BME280;37452;51.938;4.624;2022-09-09T03:45:52;76180.56;;;-142.75;100.00
41632;BME280;37452;51.938;4.624;2022-09-09T03:48:18;76184.50;;;-142.75;100.00
41632;BME280;37452;51.938;4.624;2022-09-09T03:50:44;76178.59;;;-142.75;100.00
41632;BME280;37452;51.938;4.624;2022-09-09T03:53:09;76186.47;;;-142.75;100.00
41632;BME280;37452;51.938;4.624;2022-09-09T03:55:35;76186.47;;;-142.75;100.00
41632;BME280;37452;51.938;4.624;2022-09-09T03:58:00;76186.47;;;-142.75;100.00
41632;BME280;37452;51.938;4.624;2022-09-09T04:00:25;76184.50;;;-142.75;100.00
41632;BME280;37452;51.938;4.624;2022-09-09T04:02:51;76188.44;;;-142.75;100.00
41632;BME280;37452;51.938;4.624;2022-09-09T04:05:19;76184.50;;;-142.75;100.00
41632;BME280;37452;51.938;4.624;2022-09-09T04:07:44;76184.50;;;-142.75;100.00
41632;BME280;37452;51.938;4.624;2022-09-09T04:10:09;76178.59;;;-142.75;100.00
41632;BME280;37452;51.938;4.624;2022-09-09T04:12:34;76172.69;;;-142.75;100.00
41632;BME280;37452;51.938;4.624;2022-09-09T04:15:00;76176.63;;;-142.75;100.00
41632;BME280;37452;51.938;4.624;2022-09-09T04:17:27;76180.56;;;-142.75;100.00
41632;BME280;37452;51.938;4.624;2022-09-09T04:19:52;76184.50;;;-142.75;100.00
41632;BME280;37452;51.938;4.624;2022-09-09T04:22:17;76180.56;;;-142.75;100.00
41632;BME280;37452;51.938;4.624;2022-09-09T04:24:42;76178.59;;;-142.75;100.00
41632;BME280;37452;51.938;4.624;2022-09-09T04:27:09;76172.69;;;-142.75;100.00
41632;BME280;37452;51.938;4.624;2022-09-09T04:29:34;76168.75;;;-142.75;100.00
41632;BME280;37452;51.938;4.624;2022-09-09T04:32:00;76168.75;;;-142.75;100.00
41632;BME280;37452;51.938;4.624;2022-09-09T04:34:25;76164.81;;;-142.75;100.00
41632;BME280;37452;51.938;4.624;2022-09-09T04:36:50;76166.78;;;-142.75;100.00
41632;BME280;37452;51.938;4.624;2022-09-09T04:39:16;76162.84;;;-142.75;100.00
41632;BME280;37452;51.938;4.624;2022-09-09T04:41:42;76160.88;;;-142.75;100.00
41632;BME280;37452;51.938;4.624;2022-09-09T04:44:07;76168.75;;;-142.75;100.00
41632;BME280;37452;51.938;4.624;2022-09-09T04:46:32;76164.81;;;-142.75;100.00
41632;BME280;37452;51.938;4.624;2022-09-09T04:48:59;76160.88;;;-142.75;100.00
41632;BME280;37452;51.938;4.624;2022-09-09T04:51:24;76172.69;;;-142.75;100.00
41632;BME280;37452;51.938;4.624;2022-09-09T04:53:50;76166.78;;;-142.75;100.00
41632;BME280;37452;51.938;4.624;2022-09-09T04:56:16;76172.69;;;-142.75;100.00
41632;BME280;37452;51.938;4.624;2022-09-09T04:58:42;76176.63;;;-142.75;100.00
41632;BME280;37452;51.938;4.624;2022-09-09T05:01:20;76166.78;;;-142.75;100.00
41632;BME280;37452;51.938;4.624;2022-09-09T05:03:46;76174.66;;;-142.75;100.00
41632;BME280;37452;51.938;4.624;2022-09-09T05:06:13;76172.69;;;-142.75;100.00
41632;BME280;37452;51.938;4.624;2022-09-09T05:08:39;76178.59;;;-142.75;100.00
41632;BME280;37452;51.938;4.624;2022-09-09T05:13:40;76178.59;;;-142.75;100.00
41632;BME280;37452;51.938;4.624;2022-09-09T05:16:05;76182.53;;;-142.75;100.00
41632;BME280;37452;51.938;4.624;2022-09-09T05:18:30;76180.56;;;-142.75;100.00
41632;BME280;37452;51.938;4.624;2022-09-09T05:20:59;76170.72;;;-142.75;100.00
41632;BME280;37452;51.938;4.624;2022-09-09T05:23:25;76168.75;;;-142.75;100.00
41632;BME280;37452;51.938;4.624;2022-09-09T05:25:54;76166.78;;;-142.75;100.00
41632;BME280;37452;51.938;4.624;2022-09-09T05:28:20;76168.75;;;-142.75;100.00
41632;BME280;37452;51.938;4.624;2022-09-09T05:30:45;76172.69;;;-142.75;100.00
41632;BME280;37452;51.938;4.624;2022-09-09T05:33:10;76168.75;;;-142.75;100.00
41632;BME280;37452;51.938;4.624;2022-09-09T05:35:35;76164.81;;;-142.75;100.00
41632;BME280;37452;51.938;4.624;2022-09-09T05:38:00;76153.00;;;-142.75;100.00
41632;BME280;37452;51.938;4.624;2022-09-09T05:40:26;76158.91;;;-142.75;100.00
41632;BME280;37452;51.938;4.624;2022-09-09T05:42:52;76145.13;;;-142.75;100.00
41632;BME280;37452;51.938;4.624;2022-09-09T05:45:18;76149.06;;;-142.75;100.00
41632;BME280;37452;51.938;4.624;2022-09-09T05:47:44;76135.28;;;-142.75;100.00
41632;BME280;37452;51.938;4.624;2022-09-09T05:50:09;76137.25;;;-142.75;100.00
41632;BME280;37452;51.938;4.624;2022-09-09T05:52:35;76125.44;;;-142.75;100.00
41632;BME280;37452;51.938;4.624;2022-09-09T05:55:00;76121.50;;;-142.75;100.00
41632;BME280;37452;51.938;4.624;2022-09-09T05:57:25;76113.63;;;-142.75;100.00
41632;BME280;37452;51.938;4.624;2022-09-09T05:59:50;76097.88;;;-142.75;100.00
41632;BME280;37452;51.938;4.624;2022-09-09T06:02:15;76093.94;;;-142.75;100.00
41632;BME280;37452;51.938;4.624;2022-09-09T06:04:41;76088.03;;;-142.75;100.00
41632;BME280;37452;51.938;4.624;2022-09-09T06:07:06;76088.03;;;-142.75;100.00
41632;BME280;37452;51.938;4.624;2022-09-09T06:09:32;76086.06;;;-142.75;100.00
41632;BME280;37452;51.938;4.624;2022-09-09T06:11:57;76074.25;;;-142.75;100.00
41632;BME280;37452;51.938;4.624;2022-09-09T06:14:23;76054.59;;;-142.75;100.00
41632;BME280;37452;51.938;4.624;2022-09-09T06:16:49;76066.41;;;-142.75;100.00
41632;BME280;37452;51.938;4.624;2022-09-09T06:19:14;76066.41;;;-142.75;100.00
41632;BME280;37452;51.938;4.624;2022-09-09T06:21:39;76062.47;;;-142.75;100.00
41632;BME280;37452;51.938;4.624;2022-09-09T06:24:05;76070.34;;;-142.75;100.00
41632;BME280;37452;51.938;4.624;2022-09-09T06:26:33;76074.25;;;-142.75;100.00
41632;BME280;37452;51.938;4.624;2022-09-09T06:28:58;76066.41;;;-142.75;100.00
41632;BME280;37452;51.938;4.624;2022-09-09T06:31:25;76070.34;;;-142.75;100.00
41632;BME280;37452;51.938;4.624;2022-09-09T06:33:51;76050.66;;;-142.75;100.00
41632;BME280;37452;51.938;4.624;2022-09-09T06:36:21;76042.78;;;-142.75;100.00
41632;BME280;37452;51.938;4.624;2022-09-09T06:38:46;76044.75;;;-142.75;100.00
41632;BME280;37452;51.938;4.624;2022-09-09T06:41:12;76042.78;;;-142.75;100.00
41632;BME280;37452;51.938;4.624;2022-09-09T06:43:38;76040.81;;;-142.75;100.00
41632;BME280;37452;51.938;4.624;2022-09-09T06:46:04;76036.88;;;-142.75;100.00
41632;BME280;37452;51.938;4.624;2022-09-09T06:48:30;76034.91;;;-142.75;100.00
41632;BME280;37452;51.938;4.624;2022-09-09T06:51:06;76042.78;;;-142.75;100.00
41632;BME280;37452;51.938;4.624;2022-09-09T06:53:32;76038.84;;;-142.75;100.00
41632;BME280;37452;51.938;4.624;2022-09-09T06:55:59;76029.00;;;-142.75;100.00
41632;BME280;37452;51.938;4.624;2022-09-09T06:58:24;76025.06;;;-142.75;100.00
41632;BME280;37452;51.938;4.624;2022-09-09T07:00:49;76032.94;;;-142.75;100.00
41632;BME280;37452;51.938;4.624;2022-09-09T07:03:14;76027.03;;;-142.75;100.00
41632;BME280;37452;51.938;4.624;2022-09-09T07:05:40;76030.97;;;-142.75;100.00
41632;BME280;37452;51.938;4.624;2022-09-09T07:08:05;76025.06;;;-142.75;100.00
41632;BME280;37452;51.938;4.624;2022-09-09T07:10:30;76011.28;;;-142.75;100.00
41632;BME280;37452;51.938;4.624;2022-09-09T07:12:56;76007.34;;;-142.75;100.00
41632;BME280;37452;51.938;4.624;2022-09-09T07:15:21;75999.47;;;-142.75;100.00
41632;BME280;37452;51.938;4.624;2022-09-09T07:17:48;75997.50;;;-142.75;100.00
41632;BME280;37452;51.938;4.624;2022-09-09T07:20:13;75991.59;;;-142.75;100.00
41632;BME280;37452;51.938;4.624;2022-09-09T07:22:39;75995.53;;;-142.75;100.00
41632;BME280;37452;51.938;4.624;2022-09-09T07:25:05;75991.59;;;-142.75;100.00
41632;BME280;37452;51.938;4.624;2022-09-09T07:27:30;75991.59;;;-142.75;100.00
41632;BME280;37452;51.938;4.624;2022-09-09T07:29:55;75983.72;;;-142.75;100.00
41632;BME280;37452;51.938;4.624;2022-09-09T07:32:20;75995.53;;;-142.75;100.00
41632;BME280;37452;51.938;4.624;2022-09-09T07:34:46;75987.66;;;-142.75;100.00
41632;BME280;37452;51.938;4.624;2022-09-09T07:37:12;75989.63;;;-142.75;100.00
41632;BME280;37452;51.938;4.624;2022-09-09T07:39:38;75989.63;;;-142.75;100.00
41632;BME280;37452;51.938;4.624;2022-09-09T07:42:04;75989.63;;;-142.75;100.00
41632;BME280;37452;51.938;4.624;2022-09-09T07:44:30;75991.59;;;-142.75;100.00
41632;BME280;37452;51.938;4.624;2022-09-09T07:46:57;76011.28;;;-142.75;100.00
41632;BME280;37452;51.938;4.624;2022-09-09T07:49:22;76017.19;;;-142.75;100.00
41632;BME280;37452;51.938;4.624;2022-09-09T07:51:47;76013.25;;;-142.75;100.00
41632;BME280;37452;51.938;4.624;2022-09-09T07:54:15;76009.31;;;-142.75;100.00
41632;BME280;37452;51.938;4.624;2022-09-09T07:56:40;76019.16;;;-142.75;100.00
41632;BME280;37452;51.938;4.624;2022-09-09T07:59:06;76007.34;;;-142.75;100.00
41632;BME280;37452;51.938;4.624;2022-09-09T08:01:32;75999.47;;;-142.75;100.00
41632;BME280;37452;51.938;4.624;2022-09-09T08:06:30;76021.13;;;-142.75;100.00
41632;BME280;37452;51.938;4.624;2022-09-09T08:08:55;76015.22;;;-142.75;100.00
41632;BME280;37452;51.938;4.624;2022-09-09T08:11:21;76003.41;;;-142.75;100.00
41632;BME280;37452;51.938;4.624;2022-09-09T08:13:48;75999.47;;;-142.75;100.00
41632;BME280;37452;51.938;4.624;2022-09-09T08:16:15;75999.47;;;-142.75;100.00
41632;BME280;37452;51.938;4.624;2022-09-09T08:18:41;76003.41;;;-142.75;100.00
41632;BME280;37452;51.938;4.624;2022-09-09T08:21:07;76001.44;;;-142.75;100.00
41632;BME280;37452;51.938;4.624;2022-09-09T08:23:34;75997.50;;;-142.75;100.00
41632;BME280;37452;51.938;4.624;2022-09-09T08:26:03;76001.44;;;-142.75;100.00
41632;BME280;37452;51.938;4.624;2022-09-09T08:28:29;75993.56;;;-142.75;100.00
41632;BME280;37452;51.938;4.624;2022-09-09T08:30:55;75991.59;;;-142.75;100.00
41632;BME280;37452;51.938;4.624;2022-09-09T08:33:20;75999.47;;;-142.75;100.00
41632;BME280;37452;51.938;4.624;2022-09-09T08:35:51;75991.59;;;-142.75;100.00
41632;BME280;37452;51.938;4.624;2022-09-09T08:38:17;75991.59;;;-142.75;100.00
41632;BME280;37452;51.938;4.624;2022-09-09T08:40:43;75991.59;;;-142.75;100.00
41632;BME280;37452;51.938;4.624;2022-09-09T08:43:14;75999.47;;;-142.75;100.00
41632;BME280;37452;51.938;4.624;2022-09-09T08:46:07;75991.59;;;-142.75;100.00
41632;BME280;37452;51.938;4.624;2022-09-09T08:48:50;75997.50;;;-142.75;100.00
41632;BME280;37452;51.938;4.624;2022-09-09T08:51:17;75995.53;;;-142.75;100.00
41632;BME280;37452;51.938;4.624;2022-09-09T08:53:44;75999.47;;;-142.75;100.00
41632;BME280;37452;51.938;4.624;2022-09-09T08:56:12;76001.44;;;-142.75;100.00
41632;BME280;37452;51.938;4.624;2022-09-09T08:58:42;76003.41;;;-142.75;100.00
41632;BME280;37452;51.938;4.624;2022-09-09T09:06:13;76007.34;;;-142.75;100.00
41632;BME280;37452;51.938;4.624;2022-09-09T09:08:47;75995.53;;;-142.75;100.00
41632;BME280;37452;51.938;4.624;2022-09-09T09:11:16;75999.47;;;-142.75;100.00
41632;BME280;37452;51.938;4.624;2022-09-09T09:13:45;75995.53;;;-142.75;100.00
41632;BME280;37452;51.938;4.624;2022-09-09T09:16:14;75987.66;;;-142.75;100.00
41632;BME280;37452;51.938;4.624;2022-09-09T09:18:44;75993.56;;;-142.75;100.00
41632;BME280;37452;51.938;4.624;2022-09-09T09:21:16;76005.38;;;-142.75;100.00
41632;BME280;37452;51.938;4.624;2022-09-09T09:23:48;75991.59;;;-142.75;100.00
41632;BME280;37452;51.938;4.624;2022-09-09T09:26:16;75991.59;;;-142.75;100.00
41632;BME280;37452;51.938;4.624;2022-09-09T09:28:42;75999.47;;;-142.75;100.00
41632;BME280;37452;51.938;4.624;2022-09-09T09:31:11;75999.47;;;-142.75;100.00
41632;BME280;37452;51.938;4.624;2022-09-09T09:36:05;76015.22;;;-142.75;100.00
41632;BME280;37452;51.938;4.624;2022-09-09T09:38:33;76007.34;;;-142.75;100.00
41632;BME280;37452;51.938;4.624;2022-09-09T09:40:59;75993.56;;;-142.75;100.00
41632;BME280;37452;51.938;4.624;2022-09-09T09:43:26;75983.72;;;-142.75;100.00
41632;BME280;37452;51.938;4.624;2022-09-09T09:45:52;75975.84;;;-142.75;100.00
41632;BME280;37452;51.938;4.624;2022-09-09T09:48:17;75964.03;;;-142.75;100.00
41632;BME280;37452;51.938;4.624;2022-09-09T09:50:46;75926.66;;;-142.75;100.00
41632;BME280;37452;51.938;4.624;2022-09-09T09:53:17;75897.13;;;-142.75;100.00
41632;BME280;37452;51.938;4.624;2022-09-09T09:55:52;75863.66;;;-142.75;100.00
41632;BME280;37452;51.938;4.624;2022-09-09T09:58:19;75849.91;;;-142.75;100.00
41632;BME280;37452;51.938;4.624;2022-09-09T10:00:51;75857.78;;;-142.75;100.00
41632;BME280;37452;51.938;4.624;2022-09-09T10:03:21;75877.44;;;-142.75;100.00
41632;BME280;37452;51.938;4.624;2022-09-09T10:05:47;75871.53;;;-142.75;100.00
41632;BME280;37452;51.938;4.624;2022-09-09T10:08:15;75869.56;;;-142.75;100.00
41632;BME280;37452;51.938;4.624;2022-09-09T10:13:25;75865.63;;;-142.75;100.00
41632;BME280;37452;51.938;4.624;2022-09-09T10:18:39;75891.22;;;-142.75;100.00
41632;BME280;37452;51.938;4.624;2022-09-09T10:26:07;75952.25;;;-142.75;100.00
41632;BME280;37452;51.938;4.624;2022-09-09T10:33:44;75964.03;;;-142.75;100.00
41632;BME280;37452;51.938;4.624;2022-09-09T10:36:21;75964.03;;;-142.75;100.00
41632;BME280;37452;51.938;4.624;2022-09-09T10:38:48;75962.09;;;-142.75;100.00
41632;BME280;37452;51.938;4.624;2022-09-09T10:41:24;75964.03;;;-142.75;100.00
41632;BME280;37452;51.938;4.624;2022-09-09T10:51:21;75952.25;;;-142.75;100.00
41632;BME280;37452;51.938;4.624;2022-09-09T10:56:31;75954.22;;;-142.75;100.00
41632;BME280;37452;51.938;4.624;2022-09-09T10:59:04;75952.25;;;-142.75;100.00
41632;BME280;37452;51.938;4.624;2022-09-09T11:01:43;75936.50;;;-142.75;100.00
41632;BME280;37452;51.938;4.624;2022-09-09T11:06:44;75930.59;;;-142.75;100.00
41632;BME280;37452;51.938;4.624;2022-09-09T11:09:22;75887.28;;;-142.75;100.00
41632;BME280;37452;51.938;4.624;2022-09-09T11:11:52;75806.59;;;-142.75;100.00
41632;BME280;37452;51.938;4.624;2022-09-09T11:14:41;75804.63;;;-142.75;100.00
41632;BME280;37452;51.938;4.624;2022-09-09T11:17:12;75806.59;;;-142.75;100.00
41632;BME280;37452;51.938;4.624;2022-09-09T11:19:40;75808.56;;;-142.75;100.00
41632;BME280;37452;51.938;4.624;2022-09-09T11:22:07;75812.50;;;-142.75;100.00
41632;BME280;37452;51.938;4.624;2022-09-09T11:27:14;75816.44;;;-142.75;100.00
41632;BME280;37452;51.938;4.624;2022-09-09T11:42:34;75845.97;;;-142.75;100.00
41632;BME280;37452;51.938;4.624;2022-09-09T11:45:20;75867.59;;;-142.75;100.00
41632;BME280;37452;51.938;4.624;2022-09-09T11:47:54;75887.28;;;-142.75;100.00
41632;BME280;37452;51.938;4.624;2022-09-09T11:52:45;75899.09;;;-142.75;100.00
41632;BME280;37452;51.938;4.624;2022-09-09T11:55:24;75920.75;;;-142.75;100.00
41632;BME280;37452;51.938;4.624;2022-09-09T11:57:57;75910.91;;;-142.75;100.00
41632;BME280;37452;51.938;4.624;2022-09-09T12:00:41;75906.97;;;-142.75;100.00
41632;BME280;37452;51.938;4.624;2022-09-09T12:05:52;75906.97;;;-142.75;100.00
41632;BME280;37452;51.938;4.624;2022-09-09T12:08:20;75889.25;;;-142.75;100.00
41632;BME280;37452;51.938;4.624;2022-09-09T12:10:56;75905.00;;;-142.75;100.00
41632;BME280;37452;51.938;4.624;2022-09-09T12:13:23;75924.69;;;-142.75;100.00
41632;BME280;37452;51.938;4.624;2022-09-09T12:15:49;75950.28;;;-142.75;100.00
41632;BME280;37452;51.938;4.624;2022-09-09T12:18:21;75950.28;;;-142.75;100.00
41632;BME280;37452;51.938;4.624;2022-09-09T12:20:52;75967.97;;;-142.75;100.00
41632;BME280;37452;51.938;4.624;2022-09-09T12:25:58;75983.72;;;-142.75;100.00
41632;BME280;37452;51.938;4.624;2022-09-09T12:31:21;75967.97;;;-142.75;100.00
41632;BME280;37452;51.938;4.624;2022-09-09T12:33:49;75948.31;;;-142.75;100.00
41632;BME280;37452;51.938;4.624;2022-09-09T12:36:36;75956.19;;;-142.75;100.00
41632;BME280;37452;51.938;4.624;2022-09-09T12:39:10;75952.25;;;-142.75;100.00
41632;BME280;37452;51.938;4.624;2022-09-09T12:41:40;75948.31;;;-142.75;100.00
41632;BME280;37452;51.938;4.624;2022-09-09T12:44:05;75969.94;;;-142.75;100.00
41632;BME280;37452;51.938;4.624;2022-09-09T12:46:44;75981.75;;;-142.75;100.00
41632;BME280;37452;51.938;4.624;2022-09-09T12:49:32;75987.66;;;-142.75;100.00
41632;BME280;37452;51.938;4.624;2022-09-09T12:52:07;75997.50;;;-142.75;100.00
41632;BME280;37452;51.938;4.624;2022-09-09T12:54:35;76007.34;;;-142.75;100.00
41632;BME280;37452;51.938;4.624;2022-09-09T12:57:01;75999.47;;;-142.75;100.00
41632;BME280;37452;51.938;4.624;2022-09-09T12:59:34;76021.13;;;-142.75;100.00
41632;BME280;37452;51.938;4.624;2022-09-09T13:02:00;76019.16;;;-142.75;100.00
41632;BME280;37452;51.938;4.624;2022-09-09T13:04:25;76013.25;;;-142.75;100.00
41632;BME280;37452;51.938;4.624;2022-09-09T13:06:50;76042.78;;;-142.75;100.00
41632;BME280;37452;51.938;4.624;2022-09-09T13:09:17;76023.09;;;-142.75;100.00
41632;BME280;37452;51.938;4.624;2022-09-09T13:11:43;76038.84;;;-142.75;100.00
41632;BME280;37452;51.938;4.624;2022-09-09T13:14:17;76040.81;;;-142.75;100.00
41632;BME280;37452;51.938;4.624;2022-09-09T13:16:53;76040.81;;;-142.75;100.00
41632;BME280;37452;51.938;4.624;2022-09-09T13:19:19;76040.81;;;-142.75;100.00
41632;BME280;37452;51.938;4.624;2022-09-09T13:21:46;76023.09;;;-142.75;100.00
41632;BME280;37452;51.938;4.624;2022-09-09T13:26:59;75940.44;;;-142.75;100.00
41632;BME280;37452;51.938;4.624;2022-09-09T13:29:27;75936.50;;;-142.75;100.00
41632;BME280;37452;51.938;4.624;2022-09-09T13:31:52;75905.00;;;-142.75;100.00
41632;BME280;37452;51.938;4.624;2022-09-09T13:34:28;75891.22;;;-142.75;100.00
41632;BME280;37452;51.938;4.624;2022-09-09T13:36:59;75893.19;;;-142.75;100.00
41632;BME280;37452;51.938;4.624;2022-09-09T13:39:26;75881.38;;;-142.75;100.00
41632;BME280;37452;51.938;4.624;2022-09-09T13:41:51;75875.47;;;-142.75;100.00
41632;BME280;37452;51.938;4.624;2022-09-09T13:44:23;75865.63;;;-142.75;100.00
41632;BME280;37452;51.938;4.624;2022-09-09T13:46:59;75853.84;;;-142.75;100.00
41632;BME280;37452;51.938;4.624;2022-09-09T13:49:24;75863.66;;;-142.75;100.00
41632;BME280;37452;51.938;4.624;2022-09-09T13:52:02;75853.84;;;-142.75;100.00
41632;BME280;37452;51.938;4.624;2022-09-09T13:54:28;75875.47;;;-142.75;100.00
41632;BME280;37452;51.938;4.624;2022-09-09T13:56:53;75897.13;;;-142.75;100.00
41632;BME280;37452;51.938;4.624;2022-09-09T13:59:20;75906.97;;;-142.75;100.00
41632;BME280;37452;51.938;4.624;2022-09-09T14:01:46;75906.97;;;-142.75;100.00
41632;BME280;37452;51.938;4.624;2022-09-09T14:04:11;75916.81;;;-142.75;100.00
41632;BME280;37452;51.938;4.624;2022-09-09T14:06:37;75918.78;;;-142.75;100.00
41632;BME280;37452;51.938;4.624;2022-09-09T14:09:03;75922.72;;;-142.75;100.00
41632;BME280;37452;51.938;4.624;2022-09-09T14:11:28;75936.50;;;-142.75;100.00
41632;BME280;37452;51.938;4.624;2022-09-09T14:13:53;75928.63;;;-142.75;100.00
41632;BME280;37452;51.938;4.624;2022-09-09T14:16:19;75926.66;;;-142.75;100.00
41632;BME280;37452;51.938;4.624;2022-09-09T14:18:45;75934.53;;;-142.75;100.00
41632;BME280;37452;51.938;4.624;2022-09-09T14:21:10;75920.75;;;-142.75;100.00
41632;BME280;37452;51.938;4.624;2022-09-09T14:23:36;75914.84;;;-142.75;100.00
41632;BME280;37452;51.938;4.624;2022-09-09T14:26:03;75912.88;;;-142.75;100.00